Time,TemperatureF,DewpointF,PressureIn,WindDirection,WindDirectionDegrees,WindSpeedMPH,WindSpeedGustMPH,Humidity,HourlyPrecipIn,Conditions,Clouds,dailyrainin,SoftwareType,DateUTC
2013-08-25 00:02:00,58.6,49.3,29.90,West,266,0.0,0.0,71,0.00,CLR,SCT,0.00,WeatherDisplay:10.37,2013-08-25 07:02:00,
2013-08-25 00:07:00,58.6,49.3,29.90,West,266,0.0,0.0,71,0.00,CLR,SCT,0.00,WeatherDisplay:10.37,2013-08-25 07:07:00,
2013-08-25 00:12:00,58.5,49.1,29.90,West,266,0.0,0.0,71,0.00,CLR,SCT,0.00,WeatherDisplay:10.37,2013-08-25 07:12:00,
2013-08-25 00:17:00,58.5,48.7,29.90,West,266,0.0,0.0,70,0.00,CLR,SCT,0.00,WeatherDisplay:10.37,2013-08-25 07:17:00,
2013-08-25 00:22:00,58.6,48.5,29.90,West,269,2.3,2.3,69,0.00,CLR,SCT,0.00,WeatherDisplay:10.37,2013-08-25 07:22:00,
2013-08-25 00:28:00,58.6,48.5,29.90,West,269,0.0,0.0,69,0.00,CLR,SCT,0.00,WeatherDisplay:10.37,2013-08-25 07:28:00,
2013-08-25 00:33:00,58.6,48.5,29.90,West,269,0.0,0.0,69,0.00,CLR,SCT,0.00,WeatherDisplay:10.37,2013-08-25 07:33:00,
2013-08-25 00:38:00,58.6,48.9,29.90,West,269,0.0,0.0,70,0.00,CLR,SCT,0.00,WeatherDisplay:10.37,2013-08-25 07:38:00,
2013-08-25 00:43:00,58.5,48.7,29.90,West,269,2.3,2.3,70,0.00,CLR,SCT,0.00,WeatherDisplay:10.37,2013-08-25 07:43:00,
2013-08-25 00:48:00,58.5,48.7,29.90,West,268,3.5,3.5,70,0.00,CLR,SCT,0.00,WeatherDisplay:10.37,2013-08-25 07:48:00,
2013-08-25 00:53:00,58.5,48.7,29.90,WSW,252,3.5,3.5,70,0.00,CLR,SCT,0.00,WeatherDisplay:10.37,2013-08-25 07:53:00,
2013-08-25 00:58:00,58.5,48.7,29.90,WSW,253,3.5,3.5,70,0.00,CLR,SCT,0.00,WeatherDisplay:10.37,2013-08-25 07:58:00,
2013-08-25 01:03:00,58.5,48.7,29.90,WSW,253,0.0,0.0,70,0.00,CLR,SCT,0.00,WeatherDisplay:10.37,2013-08-25 08:03:00,
2013-08-25 01:08:00,58.5,48.7,29.90,WSW,253,0.0,0.0,70,0.00,CLR,SCT,0.00,WeatherDisplay:10.37,2013-08-25 08:08:00,
2013-08-25 01:13:00,58.3,48.2,29.90,WSW,253,0.0,0.0,69,0.00,CLR,SCT,0.00,WeatherDisplay:10.37,2013-08-25 08:13:00,
2013-08-25 01:18:00,58.3,48.5,29.90,WSW,253,3.5,3.5,70,0.00,CLR,SCT,0.00,WeatherDisplay:10.37,2013-08-25 08:18:00,
2013-08-25 01:23:00,58.3,48.5,29.90,West,260,3.5,3.5,70,0.00,CLR,SCT,0.00,WeatherDisplay:10.37,2013-08-25 08:23:00,
2013-08-25 01:28:00,58.5,48.3,29.90,North,0,3.5,3.5,69,0.00,CLR,SCT,0.00,WeatherDisplay:10.37,2013-08-25 08:28:00,
2013-08-25 01:33:00,58.5,47.9,29.90,North,0,0.0,0.0,68,0.00,CLR,SCT,0.00,WeatherDisplay:10.37,2013-08-25 08:33:00,
2013-08-25 01:38:00,58.5,47.9,29.90,SSE,152,0.0,0.0,68,0.00,CLR,SCT,0.00,WeatherDisplay:10.37,2013-08-25 08:38:00,
2013-08-25 01:43:00,58.3,48.2,29.90,South,187,0.0,0.0,69,0.00,CLR,SCT,0.00,WeatherDisplay:10.37,2013-08-25 08:43:00,
2013-08-25 01:48:00,58.3,48.2,29.90,South,187,0.0,0.0,69,0.00,CLR,SCT,0.00,WeatherDisplay:10.37,2013-08-25 08:48:00,
2013-08-25 01:53:00,58.1,48.7,29.90,South,187,0.0,0.0,71,0.00,CLR,SCT,0.00,WeatherDisplay:10.37,2013-08-25 08:53:00,
2013-08-25 01:58:00,57.9,48.6,29.90,South,187,0.0,0.0,71,0.00,CLR,SCT,0.00,WeatherDisplay:10.37,2013-08-25 08:58:00,
2013-08-25 02:03:00,57.9,49.3,29.90,South,187,0.0,0.0,73,0.00,CLR,SCT,0.00,WeatherDisplay:10.37,2013-08-25 09:03:00,
2013-08-25 02:08:00,57.7,49.1,29.90,South,187,0.0,0.0,73,0.00,CLR,SCT,0.00,WeatherDisplay:10.37,2013-08-25 09:08:00,
2013-08-25 02:13:00,57.7,49.1,29.90,South,187,0.0,0.0,73,0.00,CLR,SCT,0.00,WeatherDisplay:10.37,2013-08-25 09:13:00,
2013-08-25 02:18:00,57.7,49.1,29.90,South,187,0.0,0.0,73,0.00,CLR,SCT,0.00,WeatherDisplay:10.37,2013-08-25 09:18:00,
2013-08-25 02:23:00,57.7,49.1,29.90,South,187,0.0,0.0,73,0.00,CLR,SCT,0.00,WeatherDisplay:10.37,2013-08-25 09:23:00,
2013-08-25 02:28:00,57.7,49.1,29.90,South,185,0.0,0.0,73,0.00,CLR,SCT,0.00,WeatherDisplay:10.37,2013-08-25 09:28:00,
2013-08-25 02:33:00,57.7,49.5,29.90,South,185,0.0,0.0,74,0.00,CLR,SCT,0.00,WeatherDisplay:10.37,2013-08-25 09:33:00,
2013-08-25 02:38:00,57.6,49.3,29.90,South,183,3.5,3.5,74,0.00,CLR,SCT,0.00,WeatherDisplay:10.37,2013-08-25 09:38:00,
2013-08-25 02:43:00,57.6,49.3,29.90,North,0,3.5,3.5,74,0.00,CLR,SCT,0.00,WeatherDisplay:10.37,2013-08-25 09:43:00,
2013-08-25 02:48:00,57.4,49.2,29.90,North,0,2.3,2.3,74,0.00,CLR,SCT,0.00,WeatherDisplay:10.37,2013-08-25 09:48:00,
2013-08-25 02:53:00,57.2,49.0,29.90,North,0,2.3,2.7,74,0.00,CLR,SCT,0.00,WeatherDisplay:10.37,2013-08-25 09:53:00,
2013-08-25 02:58:00,57.0,48.8,29.90,North,0,0.0,0.0,74,0.00,CLR,SCT,0.00,WeatherDisplay:10.37,2013-08-25 09:58:00,
2013-08-25 03:03:00,56.8,48.6,29.90,North,0,0.0,0.0,74,0.00,CLR,SCT,0.00,WeatherDisplay:10.37,2013-08-25 10:03:00,
2013-08-25 03:08:00,56.8,48.6,29.90,North,0,0.0,0.0,74,0.00,CLR,SCT,0.00,WeatherDisplay:10.37,2013-08-25 10:08:00,
2013-08-25 03:13:00,56.8,49.0,29.90,North,0,0.0,0.0,75,0.00,CLR,SCT,0.00,WeatherDisplay:10.37,2013-08-25 10:13:00,
2013-08-25 03:18:00,56.5,49.0,29.90,North,0,0.0,0.0,76,0.00,CLR,SCT,0.00,WeatherDisplay:10.37,2013-08-25 10:18:00,
2013-08-25 03:23:00,56.5,49.0,29.90,North,0,0.0,0.0,76,0.00,CLR,SCT,0.00,WeatherDisplay:10.37,2013-08-25 10:23:00,
2013-08-25 03:28:00,56.5,49.0,29.90,North,0,0.0,0.0,76,0.00,CLR,SCT,0.00,WeatherDisplay:10.37,2013-08-25 10:28:00,
2013-08-25 03:33:00,56.5,49.4,29.90,North,0,0.0,0.0,77,0.00,CLR,SCT,0.00,WeatherDisplay:10.37,2013-08-25 10:33:00,
2013-08-25 03:38:00,56.5,49.4,29.90,North,0,0.0,0.0,77,0.00,CLR,SCT,0.00,WeatherDisplay:10.37,2013-08-25 10:38:00,
2013-08-25 03:43:00,56.5,49.4,29.90,North,0,0.0,0.0,77,0.00,CLR,SCT,0.00,WeatherDisplay:10.37,2013-08-25 10:43:00,
2013-08-25 03:48:00,56.3,49.2,29.90,North,0,0.0,0.0,77,0.00,CLR,SCT,0.00,WeatherDisplay:10.37,2013-08-25 10:48:00,
2013-08-25 03:53:00,56.3,49.2,29.90,North,0,0.0,0.0,77,0.00,CLR,SCT,0.00,WeatherDisplay:10.37,2013-08-25 10:53:00,
2013-08-25 03:58:00,56.3,49.5,29.90,North,0,0.0,0.0,78,0.00,CLR,SCT,0.00,WeatherDisplay:10.37,2013-08-25 10:58:00,
2013-08-25 04:03:00,56.3,49.5,29.90,North,0,0.0,0.0,78,0.00,CLR,SCT,0.00,WeatherDisplay:10.37,2013-08-25 11:03:00,
2013-08-25 04:08:00,56.1,49.7,29.90,North,0,0.0,0.0,79,0.00,CLR,SCT,0.00,WeatherDisplay:10.37,2013-08-25 11:08:00,
2013-08-25 04:13:00,56.1,50.4,29.90,North,0,0.0,0.0,81,0.00,CLR,SCT,0.00,WeatherDisplay:10.37,2013-08-25 11:13:00,
2013-08-25 04:18:00,55.9,50.2,29.90,North,0,0.0,0.0,81,0.00,CLR,SCT,0.00,WeatherDisplay:10.37,2013-08-25 11:18:00,
2013-08-25 04:23:00,55.9,50.2,29.90,North,0,0.0,0.0,81,0.00,CLR,SCT,0.00,WeatherDisplay:10.37,2013-08-25 11:23:00,
2013-08-25 04:28:00,55.9,50.2,29.90,North,0,0.0,0.0,81,0.00,CLR,SCT,0.00,WeatherDisplay:10.37,2013-08-25 11:28:00,
2013-08-25 04:33:00,55.8,49.7,29.90,North,0,0.0,0.0,80,0.00,CLR,SCT,0.00,WeatherDisplay:10.37,2013-08-25 11:33:00,
2013-08-25 04:38:00,55.8,49.7,29.90,North,0,3.5,3.5,80,0.00,CLR,SCT,0.00,WeatherDisplay:10.37,2013-08-25 11:38:00,
2013-08-25 04:43:00,55.8,49.7,29.90,North,0,0.0,0.0,80,0.00,CLR,SCT,0.00,WeatherDisplay:10.37,2013-08-25 11:43:00,
2013-08-25 04:48:00,55.6,49.5,29.90,North,0,0.0,0.0,80,0.00,CLR,SCT,0.00,WeatherDisplay:10.37,2013-08-25 11:48:00,
2013-08-25 04:53:00,55.6,49.5,29.90,North,0,0.0,0.0,80,0.00,CLR,SCT,0.00,WeatherDisplay:10.37,2013-08-25 11:53:00,
2013-08-25 04:58:00,55.4,49.3,29.90,North,0,0.0,0.0,80,0.00,CLR,SCT,0.00,WeatherDisplay:10.37,2013-08-25 11:58:00,
2013-08-25 05:03:00,55.6,49.8,29.90,North,0,0.0,0.0,81,0.00,CLR,SCT,0.00,WeatherDisplay:10.37,2013-08-25 12:03:00,
2013-08-25 05:08:00,55.6,49.8,29.90,North,0,0.0,0.0,81,0.00,CLR,SCT,0.00,WeatherDisplay:10.37,2013-08-25 12:08:00,
2013-08-25 05:13:00,55.6,49.5,29.90,North,0,0.0,0.0,80,0.00,CLR,SCT,0.00,WeatherDisplay:10.37,2013-08-25 12:13:00,
2013-08-25 05:18:00,55.6,49.8,29.90,North,0,0.0,0.0,81,0.00,CLR,SCT,0.00,WeatherDisplay:10.37,2013-08-25 12:18:00,
2013-08-25 05:23:00,55.6,49.8,29.90,North,0,0.0,0.0,81,0.00,CLR,SCT,0.00,WeatherDisplay:10.37,2013-08-25 12:23:00,
2013-08-25 05:28:00,55.6,49.8,29.90,North,0,0.0,0.0,81,0.00,CLR,SCT,0.00,WeatherDisplay:10.37,2013-08-25 12:28:00,
2013-08-25 05:33:00,55.6,49.8,29.90,North,0,0.0,0.0,81,0.00,CLR,SCT,0.00,WeatherDisplay:10.37,2013-08-25 12:33:00,
2013-08-25 05:38:00,55.6,49.8,29.90,North,0,0.0,0.0,81,0.00,CLR,SCT,0.00,WeatherDisplay:10.37,2013-08-25 12:38:00,
2013-08-25 05:43:00,55.4,49.3,29.90,North,0,0.0,0.0,80,0.00,CLR,SCT,0.00,WeatherDisplay:10.37,2013-08-25 12:43:00,
2013-08-25 05:48:00,55.4,49.7,29.90,North,0,0.0,0.0,81,0.00,CLR,SCT,0.00,WeatherDisplay:10.37,2013-08-25 12:48:00,
2013-08-25 05:53:00,55.4,49.7,29.90,North,0,0.0,0.0,81,0.00,CLR,SCT,0.00,WeatherDisplay:10.37,2013-08-25 12:53:00,
2013-08-25 05:58:00,55.2,49.5,29.90,North,0,0.0,0.0,81,0.00,CLR,SCT,0.00,WeatherDisplay:10.37,2013-08-25 12:58:00,
2013-08-25 06:03:00,55.2,49.8,29.90,North,0,0.0,0.0,82,0.00,CLR,SCT,0.00,WeatherDisplay:10.37,2013-08-25 13:03:00,
2013-08-25 06:08:00,55.2,49.8,29.90,North,0,0.0,0.0,82,0.00,CLR,SCT,0.00,WeatherDisplay:10.37,2013-08-25 13:08:00,
2013-08-25 06:13:00,55.2,49.8,29.90,North,0,0.0,0.0,82,0.00,CLR,SCT,0.00,WeatherDisplay:10.37,2013-08-25 13:13:00,
2013-08-25 06:18:00,55.2,49.8,29.90,North,0,0.0,0.0,82,0.00,CLR,SCT,0.00,WeatherDisplay:10.37,2013-08-25 13:18:00,
2013-08-25 06:23:00,55.2,49.8,29.90,North,0,0.0,0.0,82,0.00,CLR,SCT,0.00,WeatherDisplay:10.37,2013-08-25 13:23:00,
2013-08-25 06:28:00,55.2,49.8,29.90,North,0,0.0,0.0,82,0.00,CLR,SCT,0.00,WeatherDisplay:10.37,2013-08-25 13:28:00,
2013-08-25 06:33:00,55.2,49.8,29.90,North,0,0.0,0.0,82,0.00,CLR,SCT,0.00,WeatherDisplay:10.37,2013-08-25 13:33:00,
2013-08-25 06:38:00,55.2,49.8,29.90,North,0,0.0,0.0,82,0.00,CLR,SCT,0.00,WeatherDisplay:10.37,2013-08-25 13:38:00,
2013-08-25 06:43:00,55.2,49.8,29.90,North,0,0.0,0.0,82,0.00,CLR,SCT,0.00,WeatherDisplay:10.37,2013-08-25 13:43:00,
2013-08-25 06:48:00,55.4,50.0,29.90,North,0,0.0,0.0,82,0.00,CLR,SCT,0.00,WeatherDisplay:10.37,2013-08-25 13:48:00,
2013-08-25 06:53:00,55.4,50.0,29.90,North,0,0.0,0.0,82,0.00,CLR,SCT,0.00,WeatherDisplay:10.37,2013-08-25 13:53:00,
2013-08-25 06:58:00,55.4,50.0,29.90,North,0,0.0,0.0,82,0.00,CLR,SCT,0.00,WeatherDisplay:10.37,2013-08-25 13:58:00,
2013-08-25 07:03:00,55.4,50.0,29.90,North,0,0.0,0.0,82,0.00,CLR,SCT,0.00,WeatherDisplay:10.37,2013-08-25 14:03:00,
2013-08-25 07:08:00,55.4,50.3,29.90,North,0,0.0,0.0,83,0.00,CLR,SCT,0.00,WeatherDisplay:10.37,2013-08-25 14:08:00,
2013-08-25 07:13:00,55.6,50.5,29.90,North,0,0.0,0.0,83,0.00,CLR,SCT,0.00,WeatherDisplay:10.37,2013-08-25 14:13:00,
2013-08-25 07:18:00,55.8,51.0,29.90,North,0,0.0,0.0,84,0.00,CLR,SCT,0.00,WeatherDisplay:10.37,2013-08-25 14:18:00,
2013-08-25 07:23:00,56.1,52.0,29.90,North,0,0.0,0.0,86,0.00,CLR,SCT,0.00,WeatherDisplay:10.37,2013-08-25 14:23:00,
2013-08-25 07:28:00,56.3,52.2,29.90,West,263,2.3,0.0,86,0.00,CLR,SCT,0.00,WeatherDisplay:10.37,2013-08-25 14:28:00,
2013-08-25 07:33:00,56.5,51.7,29.90,West,263,0.0,0.0,84,0.00,CLR,SCT,0.00,WeatherDisplay:10.37,2013-08-25 14:33:00,
2013-08-25 07:39:00,56.7,51.9,29.90,West,263,0.0,0.0,84,0.00,CLR,SCT,0.00,WeatherDisplay:10.37,2013-08-25 14:39:00,
2013-08-25 07:44:00,56.8,51.1,29.90,West,263,0.0,0.0,81,0.00,CLR,SCT,0.00,WeatherDisplay:10.37,2013-08-25 14:44:00,
2013-08-25 07:49:00,57.2,50.7,29.90,West,262,0.0,0.0,79,0.00,CLR,SCT,0.00,WeatherDisplay:10.37,2013-08-25 14:49:00,
2013-08-25 07:54:00,57.7,50.6,29.90,West,262,0.0,0.0,77,0.00,CLR,SCT,0.00,WeatherDisplay:10.37,2013-08-25 14:54:00,
2013-08-25 07:59:00,58.3,50.4,29.90,West,261,0.0,0.0,75,0.00,CLR,SCT,0.00,WeatherDisplay:10.37,2013-08-25 14:59:00,
2013-08-25 08:04:00,58.8,50.5,29.90,ESE,116,0.0,0.0,74,0.00,CLR,SCT,0.00,WeatherDisplay:10.37,2013-08-25 15:04:00,
2013-08-25 08:09:00,59.4,50.7,29.90,ESE,116,0.0,0.0,73,0.00,CLR,SCT,0.00,WeatherDisplay:10.37,2013-08-25 15:09:00,
2013-08-25 08:14:00,60.1,48.7,29.90,East,85,3.1,0.0,66,0.00,CLR,SCT,0.00,WeatherDisplay:10.37,2013-08-25 15:14:00,
2013-08-25 08:19:00,60.6,47.5,29.90,East,85,0.0,0.0,62,0.00,CLR,SCT,0.00,WeatherDisplay:10.37,2013-08-25 15:19:00,
2013-08-25 08:24:00,61.2,48.0,29.90,East,85,2.3,0.0,62,0.00,CLR,SCT,0.00,WeatherDisplay:10.37,2013-08-25 15:24:00,
2013-08-25 08:29:00,61.3,46.4,29.90,ESE,118,0.0,0.0,58,0.00,CLR,SCT,0.00,WeatherDisplay:10.37,2013-08-25 15:29:00,
2013-08-25 08:34:00,61.9,47.4,29.90,ESE,119,0.0,0.0,59,0.00,CLR,SCT,0.00,WeatherDisplay:10.37,2013-08-25 15:34:00,
2013-08-25 08:39:00,62.2,47.3,29.90,East,95,5.8,5.8,58,0.00,CLR,SCT,0.00,WeatherDisplay:10.37,2013-08-25 15:39:00,
2013-08-25 08:44:00,62.2,47.7,29.90,East,95,3.5,3.5,59,0.00,CLR,SCT,0.00,WeatherDisplay:10.37,2013-08-25 15:44:00,
2013-08-25 08:49:00,62.4,47.0,29.90,East,97,4.6,4.6,57,0.00,CLR,SCT,0.00,WeatherDisplay:10.37,2013-08-25 15:49:00,
2013-08-25 08:54:00,62.8,47.8,29.90,East,84,3.5,3.5,58,0.00,CLR,SCT,0.00,WeatherDisplay:10.37,2013-08-25 15:54:00,
2013-08-25 08:59:00,63.3,46.4,29.90,East,96,5.8,5.8,54,0.00,CLR,SCT,0.00,WeatherDisplay:10.37,2013-08-25 15:59:00,
2013-08-25 09:04:00,63.7,45.7,29.90,ENE,60,5.8,5.8,52,0.00,CLR,SCT,0.00,WeatherDisplay:10.37,2013-08-25 16:04:00,
2013-08-25 09:09:00,63.9,45.9,29.90,East,88,3.5,3.6,52,0.00,CLR,SCT,0.00,WeatherDisplay:10.37,2013-08-25 16:09:00,
2013-08-25 09:14:00,64.0,46.1,29.90,SE,144,3.5,3.5,52,0.00,CLR,SCT,0.00,WeatherDisplay:10.37,2013-08-25 16:14:00,
2013-08-25 09:19:00,64.2,46.2,29.90,ESE,123,3.5,3.5,52,0.00,CLR,SCT,0.00,WeatherDisplay:10.37,2013-08-25 16:19:00,
2013-08-25 09:24:00,64.4,45.3,29.90,SSE,166,3.5,0.0,50,0.00,CLR,SCT,0.00,WeatherDisplay:10.37,2013-08-25 16:24:00,
2013-08-25 09:29:00,64.6,46.0,29.90,South,180,2.3,0.0,51,0.00,CLR,SCT,0.00,WeatherDisplay:10.37,2013-08-25 16:29:00,
2013-08-25 09:34:00,64.9,45.8,29.90,SE,143,4.6,4.6,50,0.00,CLR,SCT,0.00,WeatherDisplay:10.37,2013-08-25 16:34:00,
2013-08-25 09:39:00,65.1,45.5,29.90,SE,131,3.5,0.0,49,0.00,CLR,SCT,0.00,WeatherDisplay:10.37,2013-08-25 16:39:00,
2013-08-25 09:44:00,65.5,45.3,29.90,SSE,149,3.5,3.5,48,0.00,CLR,SCT,0.00,WeatherDisplay:10.37,2013-08-25 16:44:00,
2013-08-25 09:49:00,65.8,45.0,29.90,South,177,4.6,4.6,47,0.00,CLR,SCT,0.00,WeatherDisplay:10.37,2013-08-25 16:49:00,
2013-08-25 09:54:00,65.8,45.0,29.90,SSE,165,2.3,0.0,47,0.00,CLR,SCT,0.00,WeatherDisplay:10.37,2013-08-25 16:54:00,
2013-08-25 09:59:00,66.2,44.8,29.90,SSE,165,0.0,0.0,46,0.00,CLR,SCT,0.00,WeatherDisplay:10.37,2013-08-25 16:59:00,
2013-08-25 10:04:00,66.6,45.1,29.90,SE,136,3.5,3.5,46,0.00,CLR,SCT,0.00,WeatherDisplay:10.37,2013-08-25 17:04:00,
2013-08-25 10:09:00,67.5,45.4,29.90,ESE,103,0.0,3.1,45,0.00,CLR,SCT,0.00,WeatherDisplay:10.37,2013-08-25 17:09:00,
2013-08-25 10:14:00,67.8,45.1,29.90,ESE,123,0.0,0.0,44,0.00,CLR,SCT,0.00,WeatherDisplay:10.37,2013-08-25 17:14:00,
2013-08-25 10:19:00,68.2,44.8,29.90,ENE,75,3.6,0.0,43,0.00,CLR,SCT,0.00,WeatherDisplay:10.37,2013-08-25 17:19:00,
2013-08-25 10:24:00,68.7,44.7,29.90,East,87,5.8,5.8,42,0.00,CLR,SCT,0.00,WeatherDisplay:10.37,2013-08-25 17:24:00,
2013-08-25 10:29:00,69.4,44.7,29.90,ENE,60,3.5,3.5,41,0.00,CLR,SCT,0.00,WeatherDisplay:10.37,2013-08-25 17:29:00,
2013-08-25 10:34:00,70.7,44.5,29.90,ENE,62,5.4,5.4,39,0.00,CLR,SCT,0.00,WeatherDisplay:10.37,2013-08-25 17:34:00,
2013-08-25 10:39:00,71.6,43.9,29.90,NE,48,4.9,4.9,37,0.00,CLR,SCT,0.00,WeatherDisplay:10.37,2013-08-25 17:39:00,
2013-08-25 10:44:00,72.3,43.9,29.90,ESE,113,3.5,3.5,36,0.00,CLR,SCT,0.00,WeatherDisplay:10.37,2013-08-25 17:44:00,
2013-08-25 10:49:00,72.9,44.3,29.90,ENE,76,5.8,5.8,36,0.00,CLR,SCT,0.00,WeatherDisplay:10.37,2013-08-25 17:49:00,
2013-08-25 10:54:00,73.6,43.5,29.90,NE,54,4.6,4.6,34,0.00,CLR,SCT,0.00,WeatherDisplay:10.37,2013-08-25 17:54:00,
2013-08-25 10:59:00,74.5,44.3,29.90,NE,51,5.8,5.8,34,0.00,CLR,SCT,0.00,WeatherDisplay:10.37,2013-08-25 17:59:00,
2013-08-25 11:04:00,75.7,45.4,29.90,North,0,5.8,5.8,34,0.00,CLR,SCT,0.00,WeatherDisplay:10.37,2013-08-25 18:04:00,
2013-08-25 11:09:00,76.1,44.9,29.90,ENE,78,3.5,3.5,33,0.00,CLR,SCT,0.00,WeatherDisplay:10.37,2013-08-25 18:09:00,
2013-08-25 11:14:00,77.0,44.9,29.90,North,0,5.8,5.8,32,0.00,CLR,SCT,0.00,WeatherDisplay:10.37,2013-08-25 18:14:00,
2013-08-25 11:19:00,77.4,45.2,29.90,East,100,3.5,3.5,32,0.00,CLR,SCT,0.00,WeatherDisplay:10.37,2013-08-25 18:19:00,
2013-08-25 11:24:00,77.2,45.0,29.87,NNE,28,5.8,5.8,32,0.00,CLR,SCT,0.00,WeatherDisplay:10.37,2013-08-25 18:24:00,
2013-08-25 11:29:00,77.7,45.5,29.87,North,0,2.3,0.0,32,0.00,CLR,SCT,0.00,WeatherDisplay:10.37,2013-08-25 18:29:00,
2013-08-25 11:34:00,78.3,46.0,29.87,North,3,2.3,2.7,32,0.00,CLR,SCT,0.00,WeatherDisplay:10.37,2013-08-25 18:34:00,
2013-08-25 11:39:00,78.6,46.3,29.87,NE,34,4.6,4.6,32,0.00,CLR,SCT,0.00,WeatherDisplay:10.37,2013-08-25 18:39:00,
2013-08-25 11:44:00,79.3,46.9,29.87,NNE,31,8.1,8.1,32,0.00,CLR,SCT,0.00,WeatherDisplay:10.37,2013-08-25 18:44:00,
2013-08-25 11:49:00,79.7,46.4,29.87,NE,39,5.8,5.8,31,0.00,CLR,SCT,0.00,WeatherDisplay:10.37,2013-08-25 18:49:00,
2013-08-25 11:54:00,80.2,46.9,29.87,East,87,8.1,8.1,31,0.00,CLR,SCT,0.00,WeatherDisplay:10.37,2013-08-25 18:54:00,
2013-08-25 11:59:00,80.6,47.2,29.87,SSE,158,3.5,0.0,31,0.00,CLR,SCT,0.00,WeatherDisplay:10.37,2013-08-25 18:59:00,
2013-08-25 12:04:00,80.1,46.7,29.87,ENE,63,5.8,5.8,31,0.00,CLR,SCT,0.00,WeatherDisplay:10.37,2013-08-25 19:04:00,
2013-08-25 12:09:00,80.4,47.0,29.87,NE,40,7.6,7.6,31,0.00,CLR,SCT,0.00,WeatherDisplay:10.37,2013-08-25 19:09:00,
2013-08-25 12:14:00,80.8,46.4,29.87,East,90,5.8,5.8,30,0.00,CLR,SCT,0.00,WeatherDisplay:10.37,2013-08-25 19:14:00,
2013-08-25 12:19:00,80.6,46.3,29.87,South,175,3.5,3.5,30,0.00,CLR,SCT,0.00,WeatherDisplay:10.37,2013-08-25 19:19:00,
2013-08-25 12:24:00,80.8,46.4,29.87,ENE,71,8.1,8.1,30,0.00,CLR,SCT,0.00,WeatherDisplay:10.37,2013-08-25 19:24:00,
2013-08-25 12:29:00,81.3,46.9,29.87,East,96,3.6,0.0,30,0.00,CLR,SCT,0.00,WeatherDisplay:10.37,2013-08-25 19:29:00,
2013-08-25 12:34:00,80.4,47.0,29.87,ESE,111,10.4,10.4,31,0.00,CLR,SCT,0.00,WeatherDisplay:10.37,2013-08-25 19:34:00,
2013-08-25 12:39:00,79.5,46.2,29.84,SE,135,2.3,0.0,31,0.00,CLR,SCT,0.00,WeatherDisplay:10.37,2013-08-25 19:39:00,
2013-08-25 12:44:00,79.0,45.8,29.84,SW,234,5.8,5.8,31,0.00,CLR,SCT,0.00,WeatherDisplay:10.37,2013-08-25 19:44:00,
2013-08-25 12:49:00,75.9,44.7,29.84,WSW,247,15.0,15.0,33,0.00,CLR,SCT,0.00,WeatherDisplay:10.37,2013-08-25 19:49:00,
2013-08-25 12:54:00,72.7,46.3,29.87,WSW,243,16.1,16.1,39,0.00,CLR,SCT,0.00,WeatherDisplay:10.37,2013-08-25 19:54:00,
2013-08-25 12:59:00,71.2,47.6,29.87,West,274,15.0,15.0,43,0.00,CLR,SCT,0.00,WeatherDisplay:10.37,2013-08-25 19:59:00,
2013-08-25 13:04:00,70.9,49.6,29.87,WNW,282,9.2,9.2,47,0.00,CLR,SCT,0.00,WeatherDisplay:10.37,2013-08-25 20:04:00,
2013-08-25 13:09:00,71.1,48.6,29.87,WSW,250,9.2,9.2,45,0.00,CLR,SCT,0.00,WeatherDisplay:10.37,2013-08-25 20:09:00,
2013-08-25 13:14:00,72.3,49.2,29.87,West,264,10.4,10.4,44,0.00,CLR,SCT,0.00,WeatherDisplay:10.37,2013-08-25 20:14:00,
2013-08-25 13:19:00,73.2,48.7,29.87,North,0,10.4,10.4,42,0.00,CLR,SCT,0.00,WeatherDisplay:10.37,2013-08-25 20:19:00,
2013-08-25 13:24:00,73.9,49.4,29.84,North,0,8.1,8.1,42,0.00,CLR,SCT,0.00,WeatherDisplay:10.37,2013-08-25 20:24:00,
2013-08-25 13:29:00,74.7,48.1,29.84,North,0,17.3,17.3,39,0.00,CLR,SCT,0.00,WeatherDisplay:10.37,2013-08-25 20:29:00,
2013-08-25 13:34:00,73.9,46.0,29.84,North,0,15.0,15.0,37,0.00,CLR,SCT,0.00,WeatherDisplay:10.37,2013-08-25 20:34:00,
2013-08-25 13:39:00,72.1,45.8,29.84,WSW,251,15.0,15.0,39,0.00,CLR,SCT,0.00,WeatherDisplay:10.37,2013-08-25 20:39:00,
2013-08-25 13:44:00,71.1,46.2,29.84,West,274,11.5,11.5,41,0.00,CLR,SCT,0.00,WeatherDisplay:10.37,2013-08-25 20:44:00,
2013-08-25 13:49:00,70.0,45.8,29.84,North,0,10.4,10.4,42,0.00,CLR,SCT,0.00,WeatherDisplay:10.37,2013-08-25 20:49:00,
2013-08-25 13:54:00,69.1,46.8,29.84,North,0,12.7,12.7,45,0.00,CLR,SCT,0.00,WeatherDisplay:10.37,2013-08-25 20:54:00,
2013-08-25 13:59:00,68.5,48.1,29.84,North,0,8.1,8.1,48,0.00,CLR,SCT,0.00,WeatherDisplay:10.37,2013-08-25 20:59:00,
2013-08-25 14:04:00,68.2,49.4,29.84,North,0,8.3,8.3,51,0.00,CLR,SCT,0.00,WeatherDisplay:10.37,2013-08-25 21:04:00,
2013-08-25 14:09:00,66.7,51.0,29.87,North,0,15.0,15.0,57,0.04,RA,SCT,0.04,WeatherDisplay:10.37,2013-08-25 21:09:00,
2013-08-25 14:14:00,64.2,53.0,29.87,North,0,9.2,9.2,67,0.04,RA,SCT,0.12,WeatherDisplay:10.37,2013-08-25 21:14:00,
2013-08-25 14:19:00,63.5,53.9,29.87,North,0,5.8,5.8,71,0.12,RA,SCT,0.12,WeatherDisplay:10.37,2013-08-25 21:19:00,
2013-08-25 14:24:00,63.9,55.8,29.84,NNE,24,6.3,6.3,75,0.12,RA,SCT,0.12,WeatherDisplay:10.37,2013-08-25 21:24:00,
2013-08-25 14:29:00,64.8,57.4,29.84,North,0,10.4,10.4,77,0.12,CLR,SCT,0.12,WeatherDisplay:10.37,2013-08-25 21:29:00,
2013-08-25 14:34:00,65.5,57.0,29.84,North,0,8.3,8.3,74,0.12,CLR,SCT,0.12,WeatherDisplay:10.37,2013-08-25 21:34:00,
2013-08-25 14:39:00,65.7,56.0,29.84,North,0,10.4,10.4,71,0.12,CLR,SCT,0.12,WeatherDisplay:10.37,2013-08-25 21:39:00,
2013-08-25 14:44:00,65.7,54.8,29.84,North,357,10.4,10.4,68,0.12,CLR,SCT,0.12,WeatherDisplay:10.37,2013-08-25 21:44:00,
2013-08-25 14:49:00,65.1,53.5,29.84,North,0,12.7,12.7,66,0.12,CLR,SCT,0.12,WeatherDisplay:10.37,2013-08-25 21:49:00,
2013-08-25 14:55:00,64.2,53.0,29.81,North,0,11.5,11.5,67,0.12,CLR,SCT,0.12,WeatherDisplay:10.37,2013-08-25 21:55:00,
2013-08-25 15:00:00,63.9,53.9,29.81,North,0,10.4,10.4,70,0.12,CLR,SCT,0.12,WeatherDisplay:10.37,2013-08-25 22:00:00,
2013-08-25 15:05:00,63.9,54.3,29.81,SW,235,13.2,13.2,71,0.12,CLR,SCT,0.12,WeatherDisplay:10.37,2013-08-25 22:05:00,
2013-08-25 15:10:00,52.5,39.5,29.90,SW,235,12.7,12.7,61,0.16,RA,SCT,0.28,WeatherDisplay:10.37,2013-08-25 22:10:00,
2013-08-25 15:15:00,50.5,41.5,29.90,SW,235,12.7,12.7,71,0.24,RA,SCT,0.35,WeatherDisplay:10.37,2013-08-25 22:15:00,
2013-08-25 15:20:00,50.5,45.9,29.90,SW,235,13.2,13.2,84,0.28,RA,SCT,0.39,WeatherDisplay:10.37,2013-08-25 22:20:00,
2013-08-25 15:25:00,50.9,47.2,29.93,SW,235,12.7,12.7,87,0.28,RA,SCT,0.39,WeatherDisplay:10.37,2013-08-25 22:25:00,
2013-08-25 15:30:00,51.3,47.8,29.93,SW,235,12.7,12.7,88,0.28,,SCT,0.39,WeatherDisplay:10.37,2013-08-25 22:30:00,
2013-08-25 15:35:00,51.6,48.2,29.93,SW,235,12.7,12.7,88,0.28,CLR,SCT,0.39,WeatherDisplay:10.37,2013-08-25 22:35:00,
2013-08-25 15:40:00,52.0,48.2,29.93,SW,235,12.7,12.7,87,0.31,RA,SCT,0.43,WeatherDisplay:10.37,2013-08-25 22:40:00,
2013-08-25 15:45:00,51.6,47.9,29.93,SW,235,12.7,12.7,87,0.31,RA,SCT,0.43,WeatherDisplay:10.37,2013-08-25 22:45:00,
2013-08-25 15:50:00,51.3,47.2,29.93,SW,235,12.7,12.7,86,0.31,CLR,SCT,0.43,WeatherDisplay:10.37,2013-08-25 22:50:00,
2013-08-25 15:55:00,51.4,48.0,29.93,SW,235,12.7,12.7,88,0.31,CLR,SCT,0.43,WeatherDisplay:10.37,2013-08-25 22:55:00,
2013-08-25 16:00:00,51.6,48.5,29.93,SW,235,12.7,12.7,89,0.31,CLR,SCT,0.43,WeatherDisplay:10.37,2013-08-25 23:00:00,
2013-08-25 16:05:00,51.6,48.8,29.93,SW,235,13.2,13.2,90,0.31,CLR,SCT,0.43,WeatherDisplay:10.37,2013-08-25 23:05:00,
2013-08-25 16:10:00,51.4,48.6,29.93,SW,235,13.2,13.2,90,0.24,CLR,SCT,0.43,WeatherDisplay:10.37,2013-08-25 23:10:00,
2013-08-25 16:15:00,51.6,49.1,29.93,SW,235,12.7,12.7,91,0.08,CLR,SCT,0.43,WeatherDisplay:10.37,2013-08-25 23:15:00,
2013-08-25 16:20:00,52.0,49.4,29.93,SW,235,12.7,12.7,91,0.04,CLR,SCT,0.43,WeatherDisplay:10.37,2013-08-25 23:20:00,
2013-08-25 16:25:00,52.2,49.9,29.93,SW,235,12.7,12.7,92,0.04,CLR,SCT,0.43,WeatherDisplay:10.37,2013-08-25 23:25:00,
2013-08-25 16:30:00,52.3,50.1,29.93,SW,235,12.7,12.7,92,0.04,CLR,SCT,0.43,WeatherDisplay:10.37,2013-08-25 23:30:00,
2013-08-25 16:35:00,52.5,50.3,29.93,SW,235,13.2,13.2,92,0.04,CLR,SCT,0.43,WeatherDisplay:10.37,2013-08-25 23:35:00,
2013-08-25 16:40:00,52.9,50.6,29.93,SW,235,12.7,12.7,92,0.00,CLR,SCT,0.43,WeatherDisplay:10.37,2013-08-25 23:40:00,
2013-08-25 16:45:00,53.6,51.3,29.93,SW,235,12.7,12.7,92,0.00,CLR,SCT,0.43,WeatherDisplay:10.37,2013-08-25 23:45:00,
2013-08-25 16:50:00,54.3,52.3,29.93,SW,235,12.7,12.7,93,0.00,CLR,SCT,0.43,WeatherDisplay:10.37,2013-08-25 23:50:00,
2013-08-25 16:55:00,55.2,53.5,29.93,SW,235,13.2,13.2,94,0.00,CLR,SCT,0.43,WeatherDisplay:10.37,2013-08-25 23:55:00,
2013-08-25 17:00:00,55.9,54.5,29.93,SW,235,13.2,13.2,95,0.00,CLR,SCT,0.43,WeatherDisplay:10.37,2013-08-26 00:00:00,
2013-08-25 17:05:00,56.3,54.9,29.93,SW,235,12.7,12.7,95,0.00,CLR,SCT,0.43,WeatherDisplay:10.37,2013-08-26 00:05:00,
2013-08-25 17:10:00,56.5,55.1,29.93,SW,235,13.2,13.2,95,0.00,CLR,SCT,0.43,WeatherDisplay:10.37,2013-08-26 00:10:00,
2013-08-25 17:15:00,57.0,55.6,29.93,SW,235,12.7,12.7,95,0.00,CLR,SCT,0.43,WeatherDisplay:10.37,2013-08-26 00:15:00,
2013-08-25 17:20:00,57.6,55.8,29.93,SW,235,12.7,12.7,94,0.00,CLR,SCT,0.43,WeatherDisplay:10.37,2013-08-26 00:20:00,
2013-08-25 17:25:00,57.9,55.9,29.93,SW,235,13.2,13.2,93,0.00,CLR,SCT,0.43,WeatherDisplay:10.37,2013-08-26 00:25:00,
2013-08-25 17:30:00,58.5,53.6,29.93,SW,235,12.7,12.7,84,0.00,CLR,SCT,0.43,WeatherDisplay:10.37,2013-08-26 00:30:00,
2013-08-25 17:35:00,58.6,51.4,29.93,SW,235,13.2,13.2,77,0.00,CLR,SCT,0.43,WeatherDisplay:10.37,2013-08-26 00:35:00,
2013-08-25 17:40:00,58.8,50.5,29.93,SW,235,12.7,12.7,74,0.00,CLR,SCT,0.43,WeatherDisplay:10.37,2013-08-26 00:40:00,
2013-08-25 17:45:00,58.8,50.5,29.93,SW,235,12.7,12.7,74,0.00,CLR,SCT,0.43,WeatherDisplay:10.37,2013-08-26 00:45:00,
2013-08-25 17:50:00,59.0,50.4,29.93,SW,235,12.7,12.7,73,0.00,CLR,SCT,0.43,WeatherDisplay:10.37,2013-08-26 00:50:00,
2013-08-25 17:55:00,59.2,50.9,29.93,SW,235,12.7,12.7,74,0.00,CLR,SCT,0.43,WeatherDisplay:10.37,2013-08-26 00:55:00,
2013-08-25 18:00:00,59.4,50.0,29.93,SW,235,13.2,13.2,71,0.00,CLR,SCT,0.43,WeatherDisplay:10.37,2013-08-26 01:00:00,
2013-08-25 18:05:00,59.7,50.3,29.93,SW,235,12.7,12.7,71,0.00,CLR,SCT,0.43,WeatherDisplay:10.37,2013-08-26 01:05:00,
2013-08-25 18:10:00,59.7,49.9,29.93,SW,235,13.2,13.2,70,0.00,CLR,SCT,0.43,WeatherDisplay:10.37,2013-08-26 01:10:00,
2013-08-25 18:15:00,59.9,49.3,29.93,SW,235,12.7,12.7,68,0.00,CLR,SCT,0.43,WeatherDisplay:10.37,2013-08-26 01:15:00,
2013-08-25 18:20:00,59.7,48.7,29.93,SW,235,12.7,12.7,67,0.00,CLR,SCT,0.43,WeatherDisplay:10.37,2013-08-26 01:20:00,
2013-08-25 18:25:00,59.7,48.3,29.93,SW,235,12.7,12.7,66,0.00,CLR,SCT,0.43,WeatherDisplay:10.37,2013-08-26 01:25:00,
2013-08-25 18:30:00,59.7,47.9,29.93,SW,235,12.7,12.7,65,0.00,CLR,SCT,0.43,WeatherDisplay:10.37,2013-08-26 01:30:00,
2013-08-25 18:35:00,59.7,48.3,29.93,SW,235,12.7,12.7,66,0.00,CLR,SCT,0.43,WeatherDisplay:10.37,2013-08-26 01:35:00,
2013-08-25 18:40:00,59.5,46.5,29.90,SW,235,12.7,12.7,62,0.00,CLR,SCT,0.43,WeatherDisplay:10.37,2013-08-26 01:40:00,
2013-08-25 18:45:00,59.7,47.5,29.90,SW,235,12.7,12.7,64,0.00,CLR,SCT,0.43,WeatherDisplay:10.37,2013-08-26 01:45:00,
2013-08-25 18:50:00,59.7,47.1,29.90,SW,235,13.2,13.2,63,0.00,CLR,SCT,0.43,WeatherDisplay:10.37,2013-08-26 01:50:00,
2013-08-25 18:55:00,59.5,45.6,29.90,SW,235,13.2,13.2,60,0.00,CLR,SCT,0.43,WeatherDisplay:10.37,2013-08-26 01:55:00,
2013-08-25 19:00:00,59.5,46.9,29.90,SW,235,12.7,12.7,63,0.00,CLR,SCT,0.43,WeatherDisplay:10.37,2013-08-26 02:00:00,
2013-08-25 19:05:00,59.5,47.8,29.90,SW,235,12.7,12.7,65,0.00,CLR,SCT,0.43,WeatherDisplay:10.37,2013-08-26 02:05:00,
2013-08-25 19:10:00,59.5,48.6,29.93,SW,235,12.7,12.7,67,0.00,CLR,SCT,0.43,WeatherDisplay:10.37,2013-08-26 02:10:00,
2013-08-25 19:15:00,59.4,48.0,29.93,SW,235,12.7,12.7,66,0.00,CLR,SCT,0.43,WeatherDisplay:10.37,2013-08-26 02:15:00,
2013-08-25 19:20:00,59.4,48.0,29.93,SW,235,12.7,12.7,66,0.00,CLR,SCT,0.43,WeatherDisplay:10.37,2013-08-26 02:20:00,
2013-08-25 19:25:00,59.2,48.2,29.93,SW,235,12.7,12.7,67,0.00,CLR,SCT,0.43,WeatherDisplay:10.37,2013-08-26 02:25:00,
2013-08-25 19:30:00,59.0,48.1,29.93,SW,235,12.7,12.7,67,0.00,CLR,SCT,0.43,WeatherDisplay:10.37,2013-08-26 02:30:00,
2013-08-25 19:35:00,59.0,48.4,29.93,SW,235,12.7,12.7,68,0.00,CLR,SCT,0.43,WeatherDisplay:10.37,2013-08-26 02:35:00,
2013-08-25 19:40:00,58.6,48.9,29.93,SW,235,12.7,12.7,70,0.00,CLR,SCT,0.43,WeatherDisplay:10.37,2013-08-26 02:40:00,
2013-08-25 19:45:00,58.5,48.7,29.93,SW,235,12.7,12.7,70,0.00,CLR,SCT,0.43,WeatherDisplay:10.37,2013-08-26 02:45:00,
2013-08-25 19:50:00,58.5,49.1,29.93,SW,235,13.2,13.2,71,0.00,CLR,SCT,0.43,WeatherDisplay:10.37,2013-08-26 02:50:00,
2013-08-25 19:55:00,58.3,49.3,29.93,SW,235,12.7,12.7,72,0.00,CLR,SCT,0.43,WeatherDisplay:10.37,2013-08-26 02:55:00,
2013-08-25 20:00:00,58.1,49.1,29.93,SW,235,12.7,12.7,72,0.00,CLR,SCT,0.43,WeatherDisplay:10.37,2013-08-26 03:00:00,
2013-08-25 20:05:00,57.9,49.3,29.93,SW,235,12.7,12.7,73,0.00,CLR,SCT,0.43,WeatherDisplay:10.37,2013-08-26 03:05:00,
2013-08-25 20:10:00,57.7,49.5,29.93,SW,235,12.7,12.7,74,0.00,CLR,SCT,0.43,WeatherDisplay:10.37,2013-08-26 03:10:00,
2013-08-25 20:15:00,57.6,49.3,29.93,SW,235,12.7,12.7,74,0.00,CLR,SCT,0.43,WeatherDisplay:10.37,2013-08-26 03:15:00,
2013-08-25 20:20:00,57.4,49.5,29.93,SW,235,13.2,13.2,75,0.00,CLR,SCT,0.43,WeatherDisplay:10.37,2013-08-26 03:20:00,
2013-08-25 20:25:00,57.2,50.7,29.93,SW,235,12.7,12.7,79,0.00,CLR,SCT,0.43,WeatherDisplay:10.37,2013-08-26 03:25:00,
2013-08-25 20:30:00,56.8,50.7,29.93,SW,235,12.7,12.7,80,0.00,CLR,SCT,0.43,WeatherDisplay:10.37,2013-08-26 03:30:00,
2013-08-25 20:35:00,56.5,50.7,29.93,SW,235,12.7,12.7,81,0.00,CLR,SCT,0.43,WeatherDisplay:10.37,2013-08-26 03:35:00,
2013-08-25 20:40:00,56.1,50.7,29.93,SW,235,12.7,12.7,82,0.00,CLR,SCT,0.43,WeatherDisplay:10.37,2013-08-26 03:40:00,
2013-08-25 20:45:00,55.9,50.9,29.93,SW,235,12.7,12.7,83,0.00,CLR,SCT,0.43,WeatherDisplay:10.37,2013-08-26 03:45:00,
2013-08-25 20:50:00,55.6,50.5,29.93,SW,235,13.2,13.2,83,0.00,CLR,SCT,0.43,WeatherDisplay:10.37,2013-08-26 03:50:00,
2013-08-25 20:55:00,55.4,50.3,29.93,SW,235,13.2,13.2,83,0.00,CLR,SCT,0.43,WeatherDisplay:10.37,2013-08-26 03:55:00,
2013-08-25 21:00:00,55.4,50.6,29.93,SW,235,12.7,12.7,84,0.00,CLR,SCT,0.43,WeatherDisplay:10.37,2013-08-26 04:00:00,
2013-08-25 21:01:00,55.4,50.6,29.93,SW,235,12.7,12.7,84,0.00,CLR,SCT,0.43,WeatherDisplay:10.37,2013-08-26 04:01:00,
2013-08-25 21:06:00,55.4,50.6,29.93,SW,235,12.7,12.7,84,0.00,CLR,SCT,0.43,WeatherDisplay:10.37,2013-08-26 04:06:00,
2013-08-25 21:11:00,55.2,50.8,29.93,SW,235,12.7,12.7,85,0.00,CLR,SCT,0.43,WeatherDisplay:10.37,2013-08-26 04:11:00,
2013-08-25 21:16:00,55.2,50.8,29.93,SW,235,12.7,12.7,85,0.00,CLR,SCT,0.43,WeatherDisplay:10.37,2013-08-26 04:16:00,
2013-08-25 21:21:00,55.0,50.6,29.93,SW,235,12.7,12.7,85,0.00,CLR,SCT,0.43,WeatherDisplay:10.37,2013-08-26 04:21:00,
2013-08-25 21:26:00,55.0,50.6,29.93,SW,235,12.7,12.7,85,0.00,CLR,SCT,0.43,WeatherDisplay:10.37,2013-08-26 04:26:00,
2013-08-25 21:31:00,54.9,50.4,29.93,SW,235,12.7,12.7,85,0.00,CLR,SCT,0.43,WeatherDisplay:10.37,2013-08-26 04:31:00,
2013-08-25 21:36:00,54.7,50.3,29.93,SW,235,12.7,12.7,85,0.00,CLR,SCT,0.43,WeatherDisplay:10.37,2013-08-26 04:36:00,
2013-08-25 21:41:00,54.7,50.3,29.93,SW,235,13.2,13.2,85,0.00,CLR,SCT,0.43,WeatherDisplay:10.37,2013-08-26 04:41:00,
2013-08-25 21:46:00,54.7,50.3,29.93,SW,235,12.7,12.7,85,0.00,CLR,SCT,0.43,WeatherDisplay:10.37,2013-08-26 04:46:00,
2013-08-25 21:51:00,54.9,50.1,29.93,SW,235,12.7,12.7,84,0.00,CLR,SCT,0.43,WeatherDisplay:10.37,2013-08-26 04:51:00,
2013-08-25 21:56:00,54.9,50.1,29.93,SW,235,12.7,12.7,84,0.00,CLR,SCT,0.43,WeatherDisplay:10.37,2013-08-26 04:56:00,
2013-08-25 22:01:00,55.0,50.3,29.93,SW,235,12.7,12.7,84,0.00,CLR,SCT,0.43,WeatherDisplay:10.37,2013-08-26 05:01:00,
2013-08-25 22:06:00,54.9,50.1,29.93,SW,235,12.7,12.7,84,0.00,CLR,SCT,0.43,WeatherDisplay:10.37,2013-08-26 05:06:00,
2013-08-25 22:11:00,54.5,49.8,29.93,SW,235,12.7,12.7,84,0.00,CLR,SCT,0.43,WeatherDisplay:10.37,2013-08-26 05:11:00,
2013-08-25 22:16:00,54.5,49.8,29.93,SW,235,12.7,12.7,84,0.00,CLR,SCT,0.43,WeatherDisplay:10.37,2013-08-26 05:16:00,
2013-08-25 22:21:00,54.3,49.6,29.93,SW,235,12.7,12.7,84,0.00,CLR,SCT,0.43,WeatherDisplay:10.37,2013-08-26 05:21:00,
2013-08-25 22:26:00,54.3,49.6,29.93,SW,235,12.7,12.7,84,0.00,CLR,SCT,0.43,WeatherDisplay:10.37,2013-08-26 05:26:00,
2013-08-25 22:31:00,54.1,49.4,29.93,SW,235,12.7,12.7,84,0.00,CLR,SCT,0.43,WeatherDisplay:10.37,2013-08-26 05:31:00,
2013-08-25 22:36:00,54.0,49.2,29.93,SW,235,13.2,13.2,84,0.00,CLR,SCT,0.43,WeatherDisplay:10.37,2013-08-26 05:36:00,
2013-08-25 22:41:00,54.0,49.2,29.93,SW,235,13.2,13.2,84,0.00,CLR,SCT,0.43,WeatherDisplay:10.37,2013-08-26 05:41:00,
2013-08-25 22:46:00,54.0,49.2,29.93,SW,235,12.7,12.7,84,0.00,CLR,SCT,0.43,WeatherDisplay:10.37,2013-08-26 05:46:00,
2013-08-25 22:51:00,53.6,48.6,29.93,SW,235,12.7,12.7,83,0.00,CLR,SCT,0.43,WeatherDisplay:10.37,2013-08-26 05:51:00,
2013-08-25 22:56:00,53.4,48.7,29.93,SW,235,12.7,12.7,84,0.00,CLR,SCT,0.43,WeatherDisplay:10.37,2013-08-26 05:56:00,
2013-08-25 23:01:00,53.6,48.9,29.93,SW,235,12.7,12.7,84,0.00,CLR,SCT,0.43,WeatherDisplay:10.37,2013-08-26 06:01:00,
2013-08-25 23:06:00,53.6,48.9,29.93,SW,235,12.7,12.7,84,0.00,CLR,SCT,0.43,WeatherDisplay:10.37,2013-08-26 06:06:00,
2013-08-25 23:11:00,53.6,49.2,29.93,SW,235,12.7,12.7,85,0.00,CLR,SCT,0.43,WeatherDisplay:10.37,2013-08-26 06:11:00,
2013-08-25 23:16:00,53.4,49.0,29.93,SW,235,12.7,12.7,85,0.00,CLR,SCT,0.43,WeatherDisplay:10.37,2013-08-26 06:16:00,
2013-08-25 23:21:00,53.1,48.7,29.93,SW,235,12.7,12.7,85,0.00,CLR,SCT,0.43,WeatherDisplay:10.37,2013-08-26 06:21:00,
2013-08-25 23:26:00,52.9,48.5,29.93,SW,235,13.2,13.2,85,0.00,CLR,SCT,0.43,WeatherDisplay:10.37,2013-08-26 06:26:00,
2013-08-25 23:31:00,53.1,49.0,29.93,SW,235,12.7,12.7,86,0.00,CLR,SCT,0.43,WeatherDisplay:10.37,2013-08-26 06:31:00,
2013-08-25 23:36:00,53.1,49.3,29.93,SW,235,13.2,13.2,87,0.00,CLR,SCT,0.43,WeatherDisplay:10.37,2013-08-26 06:36:00,
2013-08-25 23:41:00,53.1,49.3,29.93,SW,235,12.7,12.7,87,0.00,CLR,SCT,0.43,WeatherDisplay:10.37,2013-08-26 06:41:00,
2013-08-25 23:46:00,52.9,49.1,29.93,SW,235,13.2,13.2,87,0.00,CLR,SCT,0.43,WeatherDisplay:10.37,2013-08-26 06:46:00,
2013-08-25 23:51:00,52.7,48.6,29.93,SW,235,12.7,12.7,86,0.00,CLR,SCT,0.43,WeatherDisplay:10.37,2013-08-26 06:51:00,
2013-08-25 23:56:00,52.3,48.3,29.93,SW,235,12.7,12.7,86,0.00,RA,SCT,0.00,WeatherDisplay:10.37,2013-08-26 06:56:00,